Time;durP1;ratioP1;P1;durP2;ratioP2;P2;SDS_P1;SDS_P2;PMS_P1;PMS_P2;Temp;Humidity;BMP_temperature;BMP_pressure;BME280_temperature;BME280_humidity;BME280_pressure;Samples;Min_cycle;Max_cycle;Signal;HPM_P1;HPM_P2
2023/09/15 00:09:14;;;;;;;13.75;11.20;;;15.70;1.00;;;;;;20674197;28;20164;-42
2023/09/15 00:19:16;;;;;;;16.67;13.03;;;15.60;1.00;;;;;;20676113;28;20460;-42
2023/09/15 00:29:16;;;;;;;14.57;12.23;;;15.60;1.00;;;;;;20676374;28;20086;-42
2023/09/15 00:39:17;;;;;;;17.30;13.05;;;15.50;1.00;;;;;;20671104;28;20103;-42
2023/09/15 00:49:17;;;;;;;15.00;12.80;;;15.50;1.00;;;;;;20674002;28;20031;-42
2023/09/15 00:59:18;;;;;;;15.40;12.23;;;15.30;1.00;;;;;;20670998;28;20414;-42
2023/09/15 01:09:20;;;;;;;16.77;13.47;;;15.30;1.00;;;;;;20672573;28;20097;-41
2023/09/15 01:19:43;;;;;;;16.85;13.60;;;15.20;1.00;;;;;;20670944;28;20802;-42
2023/09/15 01:29:54;;;;;;;21.27;15.35;;;15.10;1.00;;;;;;20670030;28;20355;-42
2023/09/15 01:39:54;;;;;;;17.50;14.60;;;15.00;1.00;;;;;;20666525;28;20376;-42
2023/09/15 01:49:56;;;;;;;20.08;15.25;;;14.80;1.00;;;;;;20670002;28;20052;-42
2023/09/15 01:59:58;;;;;;;17.23;13.93;;;14.60;1.00;;;;;;20667132;28;20048;-41
2023/09/15 02:09:59;;;;;;;22.80;15.75;;;14.50;1.00;;;;;;20666788;28;20577;-42
2023/09/15 02:19:59;;;;;;;22.95;17.33;;;14.40;1.00;;;;;;20664732;28;20038;-42
2023/09/15 02:30:00;;;;;;;20.67;16.10;;;14.30;1.00;;;;;;20664194;28;20065;-42
2023/09/15 02:40:00;;;;;;;20.50;16.20;;;14.20;1.00;;;;;;20665042;28;20042;-41
2023/09/15 02:50:01;;;;;;;21.08;16.42;;;14.10;1.00;;;;;;20665435;28;20095;-42
2023/09/15 03:00:07;;;;;;;23.35;17.65;;;14.10;1.00;;;;;;20663290;28;20413;-42
2023/09/15 03:10:11;;;;;;;19.30;14.55;;;14.00;1.00;;;;;;20679481;28;20956;-41
2023/09/15 03:20:15;;;;;;;21.85;15.45;;;14.00;1.00;;;;;;20681378;28;20568;-42
2023/09/15 03:30:16;;;;;;;19.67;14.65;;;13.90;1.00;;;;;;20678125;28;20041;-41
2023/09/15 03:40:17;;;;;;;19.13;14.25;;;13.80;1.00;;;;;;20676454;28;20236;-41
2023/09/15 03:50:21;;;;;;;18.37;14.40;;;13.80;1.00;;;;;;20679098;28;20046;-42
2023/09/15 04:00:22;;;;;;;19.25;13.68;;;13.70;1.00;;;;;;20676359;28;20057;-41
2023/09/15 04:10:23;;;;;;;20.85;14.85;;;13.60;1.00;;;;;;20676763;28;20522;-42
2023/09/15 04:20:24;;;;;;;20.45;13.40;;;13.50;1.00;;;;;;20677316;28;20037;-42
2023/09/15 04:30:24;;;;;;;23.85;15.38;;;13.40;1.80;;;;;;20672428;28;20057;-41
2023/09/15 04:40:25;;;;;;;19.40;15.00;;;13.60;41.10;;;;;;20673876;28;20057;-41
2023/09/15 04:50:25;;;;;;;18.70;14.07;;;13.70;98.00;;;;;;20675887;28;20046;-41
2023/09/15 05:00:27;;;;;;;17.20;13.10;;;13.60;99.90;;;;;;20669634;28;20607;-42
2023/09/15 05:10:27;;;;;;;16.95;12.82;;;13.30;99.90;;;;;;20670939;28;20248;-41
2023/09/15 05:20:28;;;;;;;20.27;13.38;;;13.10;99.90;;;;;;20673530;28;20066;-41
2023/09/15 05:30:32;;;;;;;18.63;13.63;;;13.00;99.90;;;;;;20668678;28;20069;-41
2023/09/15 05:40:33;;;;;;;19.73;13.77;;;13.00;99.90;;;;;;20670159;28;20038;-41
2023/09/15 05:50:33;;;;;;;19.97;13.73;;;12.90;99.90;;;;;;20670705;28;20271;-41
2023/09/15 06:00:34;;;;;;;21.45;14.00;;;12.80;99.90;;;;;;20667676;28;20453;-42
2023/09/15 06:10:39;;;;;;;19.52;14.10;;;12.80;99.90;;;;;;20667109;28;20050;-41
2023/09/15 06:20:40;;;;;;;19.45;14.10;;;12.90;99.90;;;;;;20669054;28;20037;-41
2023/09/15 06:30:41;;;;;;;21.52;14.18;;;13.10;99.90;;;;;;20664388;28;20046;-41
2023/09/15 06:40:41;;;;;;;18.23;12.02;;;13.30;99.90;;;;;;20661061;28;20089;-41
2023/09/15 06:50:42;;;;;;;15.38;10.73;;;13.50;86.50;;;;;;20666057;28;20049;-42
2023/09/15 07:00:43;;;;;;;16.40;11.10;;;13.60;65.20;;;;;;20662871;28;20143;-42
2023/09/15 07:10:44;;;;;;;15.48;9.73;;;13.90;49.90;;;;;;20663378;28;20060;-41
2023/09/15 07:20:45;;;;;;;10.65;7.90;;;14.20;19.30;;;;;;20665748;28;20465;-42
2023/09/15 07:30:46;;;;;;;16.63;8.00;;;14.60;1.00;;;;;;20662491;28;20034;-42
2023/09/15 07:40:47;;;;;;;10.70;6.30;;;15.10;1.00;;;;;;20663017;28;20034;-41
2023/09/15 07:50:48;;;;;;;13.50;7.65;;;15.40;1.00;;;;;;20671725;28;20034;-42
2023/09/15 08:00:48;;;;;;;10.57;6.38;;;15.60;1.00;;;;;;20676444;28;20049;-42
2023/09/15 08:10:49;;;;;;;11.73;7.07;;;15.70;1.00;;;;;;20675656;28;20052;-42
2023/09/15 08:20:49;;;;;;;9.13;5.00;;;16.10;1.00;;;;;;20677916;28;20042;-42
2023/09/15 08:30:50;;;;;;;7.20;4.50;;;16.30;1.00;;;;;;20673933;28;20049;-42
2023/09/15 08:40:59;;;;;;;8.60;4.60;;;16.80;1.00;;;;;;20674078;28;20045;-42
2023/09/15 08:51:01;;;;;;;7.25;4.00;;;17.30;1.00;;;;;;20676181;28;20584;-42
2023/09/15 09:01:07;;;;;;;7.22;4.05;;;17.80;1.00;;;;;;20670652;28;20061;-42
2023/09/15 09:11:08;;;;;;;7.75;4.30;;;18.50;1.00;;;;;;20671727;28;20042;-42
2023/09/15 09:21:09;;;;;;;8.05;4.90;;;18.70;1.00;;;;;;20671845;28;20394;-42
2023/09/15 09:31:10;;;;;;;6.23;4.03;;;19.10;1.00;;;;;;20669573;28;20383;-42
2023/09/15 09:41:11;;;;;;;6.60;4.47;;;19.20;1.00;;;;;;20670222;28;21037;-42
2023/09/15 09:51:13;;;;;;;7.18;4.78;;;19.30;1.00;;;;;;20670658;28;20042;-42
2023/09/15 10:01:14;;;;;;;8.93;4.85;;;19.50;1.00;;;;;;20667107;28;20073;-42
2023/09/15 10:11:15;;;;;;;5.10;4.03;;;19.70;1.00;;;;;;20667817;28;20112;-42
2023/09/15 10:21:16;;;;;;;8.43;4.50;;;19.90;1.00;;;;;;20666769;28;20092;-42
2023/09/15 10:31:17;;;;;;;9.50;4.82;;;20.10;1.00;;;;;;20665824;28;20042;-42
2023/09/15 10:41:30;;;;;;;9.02;5.18;;;20.20;1.00;;;;;;20664051;28;20506;-42
2023/09/15 10:51:31;;;;;;;5.90;3.90;;;20.30;1.00;;;;;;20665636;28;20050;-42
2023/09/15 11:01:31;;;;;;;9.02;4.90;;;20.70;1.00;;;;;;20663926;28;20406;-42
2023/09/15 11:11:32;;;;;;;8.57;3.97;;;21.40;1.00;;;;;;20663581;28;20379;-42
2023/09/15 11:21:33;;;;;;;8.93;4.90;;;21.90;1.00;;;;;;20665585;28;20046;-42
2023/09/15 11:31:36;;;;;;;6.03;3.95;;;22.20;1.00;;;;;;20679231;28;20315;-42
2023/09/15 11:41:53;;;;;;;4.70;2.53;;;22.60;1.00;;;;;;20677815;28;20038;-42
2023/09/15 11:51:55;;;;;;;6.30;2.92;;;23.30;1.00;;;;;;20678012;28;20497;-42
2023/09/15 12:01:59;;;;;;;5.50;3.35;;;23.60;1.00;;;;;;20678591;28;20606;-42
2023/09/15 12:12:00;;;;;;;5.10;2.97;;;23.60;1.00;;;;;;20675674;28;20037;-42
2023/09/15 12:22:02;;;;;;;3.75;2.17;;;23.80;1.00;;;;;;20677981;28;20048;-42
2023/09/15 12:32:04;;;;;;;5.50;3.15;;;24.10;1.00;;;;;;20673719;28;20050;-42
2023/09/15 12:42:05;;;;;;;6.47;4.00;;;24.20;1.00;;;;;;20671053;28;20073;-42
2023/09/15 12:52:06;;;;;;;8.25;4.60;;;24.60;1.00;;;;;;20674115;28;20046;-42
2023/09/15 13:02:07;;;;;;;7.45;4.45;;;24.50;1.00;;;;;;20673555;28;20391;-42
2023/09/15 13:12:07;;;;;;;8.38;3.78;;;24.30;1.00;;;;;;20672148;28;20096;-42
2023/09/15 13:22:08;;;;;;;6.75;4.28;;;23.90;1.00;;;;;;20668432;28;20038;-42
2023/09/15 13:32:08;;;;;;;7.75;4.28;;;23.60;1.00;;;;;;20668391;28;20074;-42
2023/09/15 13:42:09;;;;;;;6.63;5.10;;;23.70;1.00;;;;;;20667746;28;20038;-42
2023/09/15 13:52:10;;;;;;;8.02;4.95;;;23.30;1.00;;;;;;20669146;28;20398;-43
2023/09/15 14:02:10;;;;;;;7.78;4.38;;;22.50;1.00;;;;;;20669277;28;20416;-42
2023/09/15 14:12:12;;;;;;;5.75;3.58;;;22.50;1.00;;;;;;20667589;28;20413;-43
2023/09/15 14:22:12;;;;;;;6.00;3.50;;;23.50;1.00;;;;;;20667245;28;20394;-42
2023/09/15 14:32:13;;;;;;;8.80;3.97;;;24.00;1.00;;;;;;20666502;28;20040;-42
2023/09/15 14:42:13;;;;;;;5.07;3.30;;;24.20;1.00;;;;;;20664021;28;20054;-42
2023/09/15 14:52:14;;;;;;;6.28;4.07;;;23.80;1.00;;;;;;20665322;28;20104;-42
2023/09/15 15:02:15;;;;;;;4.35;3.17;;;23.40;1.00;;;;;;20662974;28;20276;-43
2023/09/15 15:12:18;;;;;;;5.90;4.03;;;23.30;1.00;;;;;;20663576;28;20061;-42
2023/09/15 15:22:19;;;;;;;5.45;3.28;;;23.20;1.00;;;;;;20665921;28;20041;-42
2023/09/15 15:32:21;;;;;;;4.95;2.63;;;23.20;1.00;;;;;;20662488;28;20044;-43
2023/09/15 15:42:22;;;;;;;6.25;3.55;;;23.10;1.00;;;;;;20661938;28;20105;-42
2023/09/15 15:52:22;;;;;;;6.20;3.05;;;22.90;1.00;;;;;;20664524;28;20050;-42
2023/09/15 16:02:23;;;;;;;7.80;3.58;;;22.70;1.00;;;;;;20661029;28;20046;-42
2023/09/15 16:12:25;;;;;;;6.20;3.15;;;22.50;1.00;;;;;;20669545;28;20092;-42
2023/09/15 16:22:27;;;;;;;4.20;2.50;;;22.00;1.00;;;;;;20676952;28;20129;-42
2023/09/15 16:32:29;;;;;;;5.93;2.85;;;21.80;1.00;;;;;;20674159;28;20053;-42
2023/09/15 16:42:30;;;;;;;5.43;2.55;;;21.60;1.00;;;;;;20674041;28;20041;-42
2023/09/15 16:52:31;;;;;;;6.45;3.00;;;21.40;1.00;;;;;;20674079;28;20046;-42
2023/09/15 17:02:33;;;;;;;5.55;2.38;;;21.30;1.00;;;;;;20673643;28;21735;-42
2023/09/15 17:12:34;;;;;;;4.15;2.30;;;21.20;1.00;;;;;;20672257;28;20045;-42
2023/09/15 17:22:40;;;;;;;4.88;2.40;;;21.10;1.00;;;;;;20669728;28;20038;-42
2023/09/15 17:32:41;;;;;;;3.97;2.50;;;20.90;1.00;;;;;;20671762;28;20202;-42
2023/09/15 17:42:42;;;;;;;5.82;2.60;;;20.70;1.00;;;;;;20668934;28;20037;-42
2023/09/15 17:52:43;;;;;;;3.60;2.20;;;20.50;1.00;;;;;;20669631;28;20050;-42
2023/09/15 18:02:45;;;;;;;4.60;2.70;;;20.10;1.00;;;;;;20669137;28;20045;-42
2023/09/15 18:12:45;;;;;;;5.15;3.20;;;19.80;1.00;;;;;;20667857;28;20451;-42
2023/09/15 18:22:49;;;;;;;5.45;3.55;;;19.40;1.00;;;;;;20667324;28;20039;-42
2023/09/15 18:32:51;;;;;;;7.00;4.00;;;19.10;1.00;;;;;;20667530;28;20139;-42
2023/09/15 18:42:51;;;;;;;5.03;3.30;;;18.80;1.00;;;;;;20664189;28;20030;-43
2023/09/15 18:52:52;;;;;;;10.00;4.53;;;18.50;1.00;;;;;;20666749;28;20127;-42
2023/09/15 19:02:53;;;;;;;6.07;4.07;;;18.30;1.00;;;;;;20664097;28;20054;-42
2023/09/15 19:12:55;;;;;;;5.43;3.65;;;18.20;1.00;;;;;;20663957;28;20050;-42
2023/09/15 19:22:59;;;;;;;5.68;4.25;;;18.00;1.00;;;;;;20664600;28;20050;-42
2023/09/15 19:33:01;;;;;;;6.05;4.00;;;17.80;1.00;;;;;;20663815;28;20046;-42
2023/09/15 19:43:07;;;;;;;5.88;4.07;;;17.70;1.00;;;;;;20661320;28;20033;-42
2023/09/15 19:53:08;;;;;;;5.97;3.83;;;17.50;1.00;;;;;;20680008;28;20075;-42
2023/09/15 20:03:09;;;;;;;6.68;4.93;;;17.30;1.00;;;;;;20677253;28;20045;-42
2023/09/15 20:13:10;;;;;;;7.75;5.50;;;17.20;1.00;;;;;;20675493;28;20046;-42
2023/09/15 20:23:12;;;;;;;7.87;5.93;;;17.10;1.00;;;;;;20678188;28;20100;-42
2023/09/15 20:33:13;;;;;;;7.40;5.90;;;17.00;1.00;;;;;;20673538;28;20187;-42
2023/09/15 20:43:13;;;;;;;9.55;6.47;;;16.90;1.00;;;;;;20673497;28;20643;-42
2023/09/15 20:53:14;;;;;;;9.98;6.80;;;16.80;1.00;;;;;;20674685;28;20046;-42
2023/09/15 21:03:14;;;;;;;10.60;7.40;;;16.70;1.00;;;;;;20673160;28;20154;-42
2023/09/15 21:13:15;;;;;;;8.57;7.18;;;16.70;1.00;;;;;;20670200;28;20616;-42
2023/09/15 21:23:16;;;;;;;10.18;7.80;;;16.70;1.00;;;;;;20673491;28;20044;-42
2023/09/15 21:33:17;;;;;;;10.60;8.25;;;16.40;1.00;;;;;;20670284;28;20116;-42
2023/09/15 21:43:18;;;;;;;13.05;8.90;;;16.30;1.00;;;;;;20669844;28;20043;-42
2023/09/15 21:53:21;;;;;;;12.23;8.85;;;16.20;1.00;;;;;;20670001;28;20053;-42
2023/09/15 22:03:22;;;;;;;11.90;8.88;;;16.10;1.00;;;;;;20667269;28;20506;-42
2023/09/15 22:13:23;;;;;;;11.93;8.25;;;16.00;1.00;;;;;;20665393;28;20054;-42
2023/09/15 22:23:25;;;;;;;10.73;8.57;;;16.00;1.00;;;;;;20669118;28;20048;-42
2023/09/15 22:33:27;;;;;;;10.25;8.15;;;16.00;1.00;;;;;;20664980;28;20057;-42
2023/09/15 22:43:29;;;;;;;10.05;8.10;;;15.90;1.00;;;;;;20665429;28;20041;-42
2023/09/15 22:53:30;;;;;;;12.85;8.75;;;15.80;1.00;;;;;;20665952;28;20094;-42
2023/09/15 23:03:31;;;;;;;10.20;8.45;;;15.70;1.00;;;;;;20662677;28;20319;-42
2023/09/15 23:13:32;;;;;;;12.82;8.82;;;15.60;1.00;;;;;;20662829;28;20053;-42
2023/09/15 23:23:33;;;;;;;12.02;9.10;;;15.50;1.00;;;;;;20674733;28;20046;-42
2023/09/15 23:33:34;;;;;;;9.23;7.68;;;15.50;1.00;;;;;;20678956;28;20048;-42
2023/09/15 23:43:35;;;;;;;11.43;8.00;;;15.50;1.00;;;;;;20678441;28;20533;-42
2023/09/15 23:53:38;;;;;;;9.57;7.18;;;15.50;1.00;;;;;;20680242;28;20593;-42
